createdAt,value
2024-01-20T00:03:05.503Z,-6.00
2024-01-20T00:08:06.562Z,-6.00
2024-01-20T00:13:07.753Z,-5.84
2024-01-20T00:18:08.895Z,-5.84
2024-01-20T00:23:10.042Z,-6.15
2024-01-20T00:28:11.358Z,-6.46
2024-01-20T00:33:12.414Z,-6.62
2024-01-20T00:38:14.569Z,-6.46
2024-01-20T00:43:13.911Z,-6.46
2024-01-20T00:48:15.008Z,-6.30
2024-01-20T00:53:15.995Z,-6.30
2024-01-20T00:58:16.997Z,-7.29
2024-01-20T01:03:17.980Z,-7.13
2024-01-20T01:08:19.043Z,-7.13
2024-01-20T01:13:20.148Z,-7.29
2024-01-20T01:18:21.177Z,-7.29
2024-01-20T01:23:22.147Z,-7.44
2024-01-20T01:28:23.477Z,-7.60
2024-01-20T01:33:24.531Z,-7.60
2024-01-20T01:38:25.486Z,-7.60
2024-01-20T01:43:26.499Z,-7.29
2024-01-20T01:48:27.502Z,-7.44
2024-01-20T01:53:28.450Z,-7.76
2024-01-20T01:58:29.495Z,-7.60
2024-01-20T02:03:30.667Z,-7.60
2024-01-20T02:08:31.703Z,-7.60
2024-01-20T02:13:32.661Z,-7.60
2024-01-20T02:18:33.719Z,-7.44
2024-01-20T02:23:34.631Z,-7.44
2024-01-20T02:28:35.644Z,-7.44
2024-01-20T02:33:36.849Z,-7.44
2024-01-20T02:38:41.832Z,-6.98
2024-01-20T02:43:37.778Z,-6.83
2024-01-20T02:48:38.853Z,-7.29
2024-01-20T02:53:39.844Z,-7.13
2024-01-20T02:58:40.782Z,-6.53
2024-01-20T03:03:41.794Z,-6.83
2024-01-20T03:08:42.892Z,-7.13
2024-01-20T03:13:43.804Z,-7.13
2024-01-20T03:18:45.235Z,-7.29
2024-01-20T03:23:47.191Z,-7.44
2024-01-20T03:28:47.157Z,-7.60
2024-01-20T03:33:46.220Z,-7.60
2024-01-20T03:38:47.162Z,-7.60
2024-01-20T03:43:48.168Z,-7.60
2024-01-20T03:48:50.214Z,-7.76
2024-01-20T03:53:49.198Z,-7.76
2024-01-20T03:58:51.275Z,-7.76
2024-01-20T04:03:50.292Z,-7.76
2024-01-20T04:08:51.306Z,-7.76
2024-01-20T04:13:52.237Z,-7.92
2024-01-20T04:18:53.332Z,-8.24
2024-01-20T04:23:54.550Z,-8.08
2024-01-20T04:28:55.487Z,-7.92
2024-01-20T04:33:57.536Z,-7.92
2024-01-20T04:38:56.582Z,-7.92
2024-01-20T04:43:58.532Z,-7.92
2024-01-20T04:48:59.676Z,-8.08
2024-01-20T04:53:58.637Z,-8.24
2024-01-20T04:58:59.582Z,-8.08
2024-01-20T05:04:01.733Z,-7.92
2024-01-20T05:09:00.746Z,-7.92
2024-01-20T05:14:01.682Z,-7.92
2024-01-20T05:19:01.871Z,-7.92
2024-01-20T05:24:02.879Z,-7.44
2024-01-20T05:29:05.021Z,-7.13
2024-01-20T05:34:04.398Z,-7.96
2024-01-20T05:39:03.599Z,-7.67
2024-01-20T05:44:04.543Z,-7.37
2024-01-20T05:49:05.661Z,-7.52
2024-01-20T05:54:06.709Z,-7.67
2024-01-20T05:59:07.685Z,-7.67
2024-01-20T06:04:08.800Z,-7.81
2024-01-20T06:09:09.770Z,-7.96
2024-01-20T06:14:10.707Z,-7.96
2024-01-20T06:19:11.750Z,-7.96
2024-01-20T06:24:12.869Z,-7.96
2024-01-20T06:29:14.943Z,-7.96
2024-01-20T06:34:13.845Z,-7.81
2024-01-20T06:39:14.803Z,-7.81
2024-01-20T06:44:15.721Z,-7.96
2024-01-20T06:49:16.753Z,-8.11
2024-01-20T06:54:17.863Z,-8.42
2024-01-20T06:59:18.907Z,-7.76
2024-01-20T07:04:19.888Z,-7.60
2024-01-20T07:09:19.816Z,-7.44
2024-01-20T07:14:20.860Z,-7.44
2024-01-20T07:19:22.818Z,-7.44
2024-01-20T07:24:21.802Z,-7.44
2024-01-20T07:29:22.734Z,-7.76
2024-01-20T07:34:23.885Z,-8.08
2024-01-20T07:39:24.963Z,-8.08
2024-01-20T07:44:26.043Z,-7.44
2024-01-20T07:49:27.040Z,-7.78
2024-01-20T07:54:28.043Z,-8.13
2024-01-20T07:59:28.962Z,-8.31
2024-01-20T08:04:30.011Z,-7.34
2024-01-20T08:09:31.011Z,-7.34
2024-01-20T08:14:31.980Z,-7.34
2024-01-20T08:19:32.099Z,-7.95
2024-01-20T08:24:33.247Z,-6.81
2024-01-20T08:29:34.236Z,-6.81
2024-01-20T08:34:35.273Z,-6.81
2024-01-20T08:39:36.358Z,-7.16
2024-01-20T08:44:37.501Z,-7.16
2024-01-20T08:49:38.824Z,-6.75
2024-01-20T08:54:39.823Z,-7.12
2024-01-20T08:59:40.756Z,-7.32
2024-01-20T09:04:41.791Z,-7.12
2024-01-20T09:09:42.932Z,-7.32
2024-01-20T09:14:44.973Z,-7.32
2024-01-20T09:19:44.085Z,-7.51
2024-01-20T09:24:45.095Z,-7.32
2024-01-20T09:29:47.165Z,-6.36
2024-01-20T09:34:46.165Z,-6.36
2024-01-20T09:39:47.233Z,-6.56
2024-01-20T09:44:48.219Z,-6.75
2024-01-20T09:49:49.306Z,-6.56
2024-01-20T09:54:50.360Z,-6.56
2024-01-20T09:59:51.345Z,-6.56
2024-01-20T10:04:52.405Z,-5.60
2024-01-20T10:09:53.354Z,-6.01
2024-01-20T10:14:55.320Z,-5.80
2024-01-20T10:19:54.340Z,-6.21
2024-01-20T10:24:55.488Z,-6.42
2024-01-20T10:29:56.486Z,-6.42
2024-01-20T10:35:00.602Z,-7.29
2024-01-20T10:39:58.709Z,-6.01
2024-01-20T10:44:57.772Z,-5.60
2024-01-20T10:49:59.774Z,-6.42
2024-01-20T10:54:59.695Z,-6.85
2024-01-20T10:59:59.682Z,-6.21
2024-01-20T11:04:58.570Z,-5.80
2024-01-20T11:09:59.480Z,-5.40
2024-01-20T11:15:00.590Z,-5.40
2024-01-20T11:20:01.651Z,-5.40
2024-01-20T11:25:02.604Z,-5.40
2024-01-20T11:30:02.596Z,-5.40
2024-01-20T11:35:03.535Z,-6.01
2024-01-20T11:40:04.429Z,-5.60
2024-01-20T11:45:05.503Z,-5.60
2024-01-20T11:50:06.511Z,-6.01
2024-01-20T11:55:07.604Z,-6.42
2024-01-20T12:00:09.490Z,-6.63
2024-01-20T12:05:15.919Z,-6.85
2024-01-20T12:10:08.978Z,-6.85
2024-01-20T12:15:09.977Z,-6.63
2024-01-20T12:20:10.953Z,-6.85
2024-01-20T12:25:13.447Z,-5.91
2024-01-20T12:30:12.996Z,-5.91
2024-01-20T12:35:13.977Z,-6.85
2024-01-20T12:40:15.106Z,-5.69
2024-01-20T12:45:16.133Z,-5.91
2024-01-20T12:50:17.148Z,-5.69
2024-01-20T12:55:18.102Z,-6.13
2024-01-20T13:00:19.212Z,-6.35
2024-01-20T13:05:20.374Z,-7.07
2024-01-20T13:10:21.480Z,-7.29
2024-01-20T13:15:22.765Z,-6.58
2024-01-20T13:20:23.786Z,-6.13
2024-01-20T13:25:26.049Z,-5.69
2024-01-20T13:30:25.589Z,-5.69
2024-01-20T13:35:26.602Z,-6.01
2024-01-20T13:40:27.666Z,-5.60
2024-01-20T13:45:28.677Z,-5.40
2024-01-20T13:50:29.710Z,-5.21
2024-01-20T13:55:30.716Z,-5.01
2024-01-20T14:00:31.804Z,-5.01
2024-01-20T14:05:32.759Z,-5.21
2024-01-20T14:10:33.786Z,-5.01
2024-01-20T14:15:34.815Z,-4.64
2024-01-20T14:20:35.885Z,-4.64
2024-01-20T14:25:36.952Z,-4.64
2024-01-20T14:30:38.167Z,-4.27
2024-01-20T14:35:39.180Z,-4.08
2024-01-20T14:40:41.108Z,-4.87
2024-01-20T14:45:40.355Z,-4.52
2024-01-20T14:50:41.401Z,-4.70
2024-01-20T14:55:43.323Z,-4.52
2024-01-20T15:00:43.173Z,-4.18
2024-01-20T15:05:42.838Z,-4.18
2024-01-20T15:10:42.428Z,-4.18
2024-01-20T15:15:43.849Z,-4.35
2024-01-20T15:20:44.870Z,-4.18
2024-01-20T15:25:45.839Z,-4.18
2024-01-20T15:30:46.931Z,-4.83
2024-01-20T15:35:48.887Z,-4.66
2024-01-20T15:40:49.999Z,-4.66
2024-01-20T15:45:49.162Z,-4.50
2024-01-20T15:50:50.100Z,-4.50
2024-01-20T15:55:51.119Z,-4.50
2024-01-20T16:00:51.362Z,-4.34
2024-01-20T16:05:52.462Z,-4.50
2024-01-20T16:10:53.475Z,-4.66
2024-01-20T16:15:54.477Z,-4.66
2024-01-20T16:20:55.448Z,-4.83
2024-01-20T16:25:56.462Z,-4.50
2024-01-20T16:30:57.671Z,-4.34
2024-01-20T16:35:58.680Z,-4.34
2024-01-20T16:40:59.673Z,-4.34
2024-01-20T16:46:00.689Z,-5.17
2024-01-20T16:51:01.855Z,-4.86
2024-01-20T16:56:03.824Z,-5.01
2024-01-20T17:01:03.016Z,-4.86
2024-01-20T17:06:04.055Z,-5.01
2024-01-20T17:11:04.064Z,-4.19
2024-01-20T17:16:05.108Z,-5.32
2024-01-20T17:21:06.114Z,-5.17
2024-01-20T17:26:07.120Z,-5.01
2024-01-20T17:31:08.068Z,-5.69
2024-01-20T17:36:09.272Z,-5.84
2024-01-20T17:41:10.217Z,-5.84
2024-01-20T17:46:11.229Z,-5.55
2024-01-20T17:51:12.149Z,-4.41
2024-01-20T17:56:13.141Z,-4.71
2024-01-20T18:01:19.298Z,-5.55
2024-01-20T18:06:14.454Z,-5.55
2024-01-20T18:11:15.504Z,-5.40
2024-01-20T18:16:16.479Z,-5.25
2024-01-20T18:21:17.568Z,-5.11
2024-01-20T18:26:18.592Z,-5.40
2024-01-20T18:31:19.794Z,-5.55
2024-01-20T18:36:21.749Z,-5.40
2024-01-20T18:41:20.736Z,-5.11
2024-01-20T18:46:21.758Z,-5.40
2024-01-20T18:51:22.838Z,-5.40
2024-01-20T18:56:23.854Z,-6.24
2024-01-20T19:01:24.902Z,-6.10
2024-01-20T19:06:25.921Z,-6.10
2024-01-20T19:11:26.921Z,-5.96
2024-01-20T19:16:27.880Z,-5.96
2024-01-20T19:21:29.021Z,-5.96
2024-01-20T19:26:29.993Z,-5.68
2024-01-20T19:31:31.058Z,-4.54
2024-01-20T19:36:32.181Z,-5.82
2024-01-20T19:41:33.202Z,-5.96
2024-01-20T19:46:34.256Z,-5.96
2024-01-20T19:51:35.343Z,-5.82
2024-01-20T19:56:37.253Z,-5.96
2024-01-20T20:01:36.298Z,-5.96
2024-01-20T20:06:38.293Z,-5.82
2024-01-20T20:11:37.328Z,-5.68
2024-01-20T20:16:38.351Z,-5.68
2024-01-20T20:21:39.657Z,-5.54
2024-01-20T20:26:40.614Z,-5.68
2024-01-20T20:31:40.660Z,-5.82
2024-01-20T20:36:41.702Z,-5.82
2024-01-20T20:41:42.586Z,-5.82
2024-01-20T20:46:43.635Z,-5.96
2024-01-20T20:51:45.134Z,-5.82
2024-01-20T20:56:46.207Z,-5.82
2024-01-20T21:01:47.468Z,-5.68
2024-01-20T21:06:48.542Z,-5.82
2024-01-20T21:11:50.536Z,-5.82
2024-01-20T21:16:49.598Z,-5.96
2024-01-20T21:21:51.744Z,-5.68
2024-01-20T21:26:50.690Z,-5.68
2024-01-20T21:31:50.865Z,-6.67
2024-01-20T21:36:52.010Z,-5.68
2024-01-20T21:41:53.056Z,-6.81
2024-01-20T21:46:53.935Z,-6.81
2024-01-20T21:51:55.223Z,-6.67
2024-01-20T21:56:56.217Z,-6.81
2024-01-20T22:01:57.282Z,-6.81
2024-01-20T22:06:58.362Z,-6.67
2024-01-20T22:11:59.387Z,-6.67
2024-01-20T22:17:00.449Z,-6.67
2024-01-20T22:22:01.415Z,-5.54
2024-01-20T22:27:02.507Z,-5.82
2024-01-20T22:32:03.480Z,-5.82
2024-01-20T22:37:04.539Z,-6.10
2024-01-20T22:42:05.567Z,-6.95
2024-01-20T22:47:06.592Z,-6.81
2024-01-20T22:52:07.569Z,-6.67
2024-01-20T22:57:08.685Z,-6.81
2024-01-20T23:02:09.721Z,-6.67
2024-01-20T23:07:09.696Z,-6.53
2024-01-20T23:12:10.850Z,-6.40
2024-01-20T23:17:12.871Z,-5.40
2024-01-20T23:22:12.770Z,-5.96
2024-01-20T23:27:11.811Z,-6.81
2024-01-20T23:32:12.772Z,-6.67
2024-01-20T23:37:14.711Z,-6.40
2024-01-20T23:42:13.819Z,-6.40
2024-01-20T23:47:14.761Z,-6.40
2024-01-20T23:52:15.782Z,-6.53
2024-01-20T23:57:16.839Z,-5.27
